Apache, Nevada
Current Conditions -  °F | °C
As of 6:56 AM on Thursday 23 Oct 2014 (Local Time) from KWMC Reporting Station
Overcast Overcast  
Wind Chill: 45°   Ceiling: 11000
Heat Index: 45°   Visibility: 10mi
Dew Point: 31°   Wind: 0mph
Humidity: 58%   Direction: NA
Pressure: 30.09"   Gusts: NA
Location:  40.601°N, 117.984°W
Report Text: KWMC 231356Z AUTO 00000KT 10SM OVC110 07/M01 A3009 RMK AO2 SLP172 T00721006
Loading
Personal Weather Stations






























Interactive Weather Map New forecast layout! Learn more

10-Day Weather Forecast

Advertisements
Track Severe Weather on mobile